Time;durP1;ratioP1;P1;durP2;ratioP2;P2;SDS_P1;SDS_P2;PMS_P1;PMS_P2;Temp;Humidity;BMP_temperature;BMP_pressure;BME280_temperature;BME280_humidity;BME280_pressure;Samples;Min_cycle;Max_cycle;Signal;HPM_P1;HPM_P2
2022/03/05 00:01:32;;;;;;;6.93;3.50;;;1.70;99.90;;;;;;5071326;28;20518;-63
2022/03/05 00:04:02;;;;;;;5.83;3.63;;;1.60;99.90;;;;;;5040139;28;20468;-63
2022/03/05 00:06:31;;;;;;;5.03;3.00;;;1.60;99.90;;;;;;5042147;28;20468;-63
2022/03/05 00:09:00;;;;;;;5.50;3.10;;;1.60;99.90;;;;;;5051334;28;21018;-63
2022/03/05 00:11:29;;;;;;;5.50;3.30;;;1.60;99.90;;;;;;5051259;28;20467;-63
2022/03/05 00:13:57;;;;;;;4.97;3.27;;;1.60;99.90;;;;;;5044839;28;20461;-63
2022/03/05 00:16:25;;;;;;;6.70;2.97;;;1.50;99.90;;;;;;5049536;28;20511;-63
2022/03/05 00:18:53;;;;;;;6.70;3.40;;;1.50;99.90;;;;;;5044767;28;21001;-62
2022/03/05 00:21:22;;;;;;;6.30;3.07;;;1.60;99.90;;;;;;5048475;28;20482;-63
2022/03/05 00:23:50;;;;;;;7.37;3.53;;;1.60;99.90;;;;;;5045641;28;21071;-63
2022/03/05 00:26:20;;;;;;;5.60;3.23;;;1.50;99.90;;;;;;5048481;28;20472;-63
2022/03/05 00:28:48;;;;;;;6.77;3.20;;;1.50;99.90;;;;;;5050799;28;20484;-63
2022/03/05 00:31:16;;;;;;;4.93;3.00;;;1.50;99.90;;;;;;5050972;28;20481;-63
2022/03/05 00:33:44;;;;;;;6.70;3.30;;;1.50;99.90;;;;;;5045547;28;20546;-63
2022/03/05 00:36:12;;;;;;;4.93;2.77;;;1.50;99.90;;;;;;5039133;28;20495;-62
2022/03/05 00:38:41;;;;;;;5.60;3.30;;;1.60;99.90;;;;;;5045146;28;20499;-63
2022/03/05 00:41:09;;;;;;;5.07;2.97;;;1.40;99.90;;;;;;5034983;28;20468;-63
2022/03/05 00:43:38;;;;;;;5.90;3.67;;;1.40;99.90;;;;;;5044276;28;20506;-63
2022/03/05 00:46:08;;;;;;;8.53;3.43;;;1.40;99.90;;;;;;5046891;28;20471;-63
2022/03/05 00:48:37;;;;;;;6.20;3.30;;;1.40;99.90;;;;;;5050673;28;21165;-63
2022/03/05 00:51:05;;;;;;;5.67;3.53;;;1.40;99.90;;;;;;5050832;28;20824;-63
2022/03/05 00:53:33;;;;;;;5.27;3.10;;;1.40;99.90;;;;;;5034554;28;20465;-63
2022/03/05 00:56:01;;;;;;;4.77;3.33;;;1.30;99.90;;;;;;5030838;28;20462;-63
2022/03/05 00:58:30;;;;;;;7.43;3.27;;;1.30;99.90;;;;;;5040601;28;20527;-63
2022/03/05 01:00:59;;;;;;;4.90;3.33;;;1.30;99.90;;;;;;5036204;28;20464;-63
2022/03/05 01:03:28;;;;;;;5.53;3.37;;;1.20;99.90;;;;;;5043650;28;20467;-63
2022/03/05 01:05:57;;;;;;;7.63;3.73;;;1.20;99.90;;;;;;5036635;28;20467;-63
2022/03/05 01:08:25;;;;;;;8.03;3.73;;;1.20;99.90;;;;;;5048437;28;20532;-61
2022/03/05 01:10:53;;;;;;;9.00;3.60;;;1.10;99.90;;;;;;5044546;28;21029;-63
2022/03/05 01:13:21;;;;;;;4.63;3.50;;;1.10;99.90;;;;;;5048961;28;20474;-63
2022/03/05 01:15:50;;;;;;;6.03;3.27;;;1.20;99.90;;;;;;5043989;28;20466;-63
2022/03/05 01:18:19;;;;;;;6.63;3.37;;;1.10;99.90;;;;;;5048964;28;20468;-63
2022/03/05 01:20:47;;;;;;;4.67;2.60;;;1.20;99.90;;;;;;5043533;28;20477;-63
2022/03/05 01:23:15;;;;;;;7.27;3.30;;;1.20;99.90;;;;;;5049767;28;21064;-63
2022/03/05 01:25:44;;;;;;;4.00;3.00;;;1.20;99.90;;;;;;5043235;28;21011;-63
2022/03/05 01:28:12;;;;;;;5.37;3.10;;;1.10;99.90;;;;;;5050233;28;20502;-62
2022/03/05 01:30:40;;;;;;;6.33;3.30;;;1.10;99.90;;;;;;5050913;28;20820;-63
2022/03/05 01:33:09;;;;;;;5.40;3.53;;;1.10;99.90;;;;;;5040751;28;20872;-63
2022/03/05 01:35:39;;;;;;;6.37;3.40;;;1.10;99.90;;;;;;5038722;28;20451;-63
2022/03/05 01:38:07;;;;;;;6.37;3.40;;;1.10;99.90;;;;;;5038032;28;21302;-63
2022/03/05 01:40:35;;;;;;;6.50;3.00;;;1.10;99.90;;;;;;5038587;28;20451;-63
2022/03/05 01:43:03;;;;;;;6.23;3.37;;;1.10;99.90;;;;;;5042546;28;20486;-63
2022/03/05 01:45:32;;;;;;;5.37;3.03;;;1.00;99.90;;;;;;5045429;28;20800;-59
2022/03/05 01:48:01;;;;;;;5.33;3.10;;;1.00;99.90;;;;;;5053942;28;20559;-62
2022/03/05 01:50:29;;;;;;;6.07;3.67;;;1.00;99.90;;;;;;5053826;28;20553;-63
2022/03/05 01:52:59;;;;;;;5.40;3.37;;;1.10;99.90;;;;;;5053871;28;20479;-63
2022/03/05 01:55:28;;;;;;;6.93;3.63;;;1.10;99.90;;;;;;5045447;28;20559;-63
2022/03/05 01:57:56;;;;;;;5.90;3.33;;;1.10;99.90;;;;;;5049650;28;20471;-63
2022/03/05 02:00:24;;;;;;;6.23;2.80;;;1.00;99.90;;;;;;5033900;28;20537;-62
2022/03/05 02:02:53;;;;;;;6.07;3.27;;;1.10;99.90;;;;;;5039012;28;20471;-63
2022/03/05 02:05:24;;;;;;;5.27;2.93;;;1.10;99.90;;;;;;5044551;28;21051;-63
2022/03/05 02:07:52;;;;;;;6.53;3.37;;;1.00;99.90;;;;;;5051127;28;20974;-63
2022/03/05 02:10:22;;;;;;;5.60;3.73;;;1.20;99.90;;;;;;5007223;28;20490;-63
2022/03/05 02:12:50;;;;;;;4.33;3.20;;;1.10;99.90;;;;;;5043514;28;20478;-63
2022/03/05 02:15:18;;;;;;;6.70;3.67;;;1.00;99.90;;;;;;5034013;28;20888;-63
2022/03/05 02:17:46;;;;;;;6.33;3.23;;;1.00;99.90;;;;;;5029646;28;20462;-63
2022/03/05 02:20:14;;;;;;;7.23;3.60;;;0.90;99.90;;;;;;5033529;28;20530;-63
2022/03/05 02:22:44;;;;;;;5.93;3.43;;;0.90;99.90;;;;;;5046325;28;20907;-63
2022/03/05 02:25:13;;;;;;;7.17;3.67;;;0.90;99.90;;;;;;5053325;28;20466;-63
2022/03/05 02:27:44;;;;;;;6.40;3.73;;;0.80;99.90;;;;;;5053203;28;20466;-63
2022/03/05 02:30:13;;;;;;;7.60;3.83;;;0.90;99.90;;;;;;5044781;28;20546;-63
2022/03/05 02:32:41;;;;;;;6.10;2.83;;;1.00;99.90;;;;;;5052900;28;20471;-63
2022/03/05 02:35:09;;;;;;;5.10;3.17;;;1.00;99.90;;;;;;5037192;28;20488;-63
2022/03/05 02:37:41;;;;;;;6.50;3.10;;;0.90;99.90;;;;;;5040800;28;20465;-64
2022/03/05 02:40:11;;;;;;;8.63;3.50;;;0.90;99.90;;;;;;5049116;28;20458;-62
2022/03/05 02:42:40;;;;;;;6.13;3.10;;;0.90;99.90;;;;;;5048964;28;20556;-63
2022/03/05 02:45:09;;;;;;;6.83;3.27;;;0.80;99.90;;;;;;5040596;28;20470;-63
2022/03/05 02:47:37;;;;;;;4.67;2.87;;;0.90;99.90;;;;;;5052995;28;20507;-63
2022/03/05 02:50:06;;;;;;;6.27;3.53;;;1.00;99.90;;;;;;5044492;28;20485;-63
2022/03/05 02:52:34;;;;;;;7.70;3.20;;;0.90;99.90;;;;;;5052745;28;20522;-63
2022/03/05 02:55:03;;;;;;;4.67;2.80;;;0.80;99.90;;;;;;5052399;28;20553;-63
2022/03/05 02:57:32;;;;;;;7.30;3.20;;;0.80;99.90;;;;;;5044739;28;20529;-63
2022/03/05 03:00:00;;;;;;;4.20;2.73;;;0.80;99.90;;;;;;5051993;28;20477;-64
2022/03/05 03:02:54;;;;;;;5.07;3.30;;;0.90;99.90;;;;;;5048974;28;20533;-62
2022/03/05 03:05:23;;;;;;;4.63;3.50;;;0.90;99.90;;;;;;5050783;28;20481;-63
2022/03/05 03:07:52;;;;;;;3.60;2.70;;;0.90;99.90;;;;;;5042898;28;20451;-62
2022/03/05 03:10:22;;;;;;;5.53;3.50;;;0.80;99.90;;;;;;5044220;28;20467;-63
2022/03/05 03:12:52;;;;;;;6.17;2.80;;;0.70;99.90;;;;;;5052633;28;21048;-63
2022/03/05 03:15:20;;;;;;;5.67;2.93;;;0.90;99.90;;;;;;5052426;28;20549;-63
2022/03/05 03:17:49;;;;;;;6.30;3.23;;;0.80;99.90;;;;;;5042571;28;20469;-63
2022/03/05 03:20:20;;;;;;;4.97;2.93;;;0.60;99.90;;;;;;5032516;28;20464;-63
2022/03/05 03:22:48;;;;;;;7.37;3.30;;;0.50;99.90;;;;;;5046211;28;20876;-63
2022/03/05 03:25:17;;;;;;;7.40;3.57;;;0.50;99.90;;;;;;5043994;28;20462;-63
2022/03/05 03:27:45;;;;;;;4.37;2.93;;;0.50;99.90;;;;;;5051956;28;20839;-62
2022/03/05 03:30:16;;;;;;;4.27;2.97;;;0.50;99.90;;;;;;5051921;28;20466;-63
2022/03/05 03:32:46;;;;;;;4.73;2.90;;;0.50;99.90;;;;;;5044037;28;20808;-63
2022/03/05 03:35:16;;;;;;;4.77;3.10;;;0.50;99.90;;;;;;5049310;28;20459;-63
2022/03/05 03:37:45;;;;;;;7.53;3.70;;;0.40;99.90;;;;;;5049521;28;20493;-63
2022/03/05 03:40:15;;;;;;;4.93;2.83;;;0.40;99.90;;;;;;5032144;28;20463;-63
2022/03/05 03:42:46;;;;;;;4.90;3.23;;;0.40;99.90;;;;;;5041369;28;20957;-63
2022/03/05 03:45:17;;;;;;;7.33;3.40;;;0.40;99.90;;;;;;5063390;28;20473;-63
2022/03/05 03:47:49;;;;;;;5.03;2.80;;;0.40;99.90;;;;;;5071740;28;20461;-63
2022/03/05 03:50:20;;;;;;;4.77;3.00;;;0.40;99.90;;;;;;5071743;28;20556;-63
2022/03/05 03:52:48;;;;;;;7.23;3.30;;;0.40;99.90;;;;;;5071706;28;20523;-63
2022/03/05 03:55:18;;;;;;;7.17;3.10;;;0.30;99.90;;;;;;5063434;28;20469;-63
2022/03/05 03:57:46;;;;;;;5.57;2.83;;;0.40;99.90;;;;;;5070843;28;20544;-63
2022/03/05 04:00:18;;;;;;;7.40;3.47;;;0.40;99.90;;;;;;5062974;28;20482;-64
2022/03/05 04:02:46;;;;;;;7.97;3.37;;;0.30;99.90;;;;;;5071477;28;20896;-62
2022/03/05 04:05:15;;;;;;;4.90;3.03;;;0.30;99.90;;;;;;5068600;28;20531;-64
2022/03/05 04:10:29;;;;;;;4.63;3.07;;;0.30;99.90;;;;;;5071178;28;20532;-63
2022/03/05 04:12:58;;;;;;;8.30;3.40;;;0.20;99.90;;;;;;5086615;28;20465;-62
2022/03/05 04:15:28;;;;;;;5.70;3.40;;;0.20;99.90;;;;;;5071067;28;20485;-63
2022/03/05 04:17:56;;;;;;;5.30;2.90;;;0.20;99.90;;;;;;5067824;28;20463;-63
2022/03/05 04:20:24;;;;;;;4.90;3.30;;;0.20;99.90;;;;;;5059292;28;20549;-63
2022/03/05 04:22:52;;;;;;;5.77;3.40;;;0.20;99.90;;;;;;5065351;28;20501;-63
2022/03/05 04:25:21;;;;;;;5.60;3.40;;;0.20;99.90;;;;;;5071322;28;20506;-62
2022/03/05 04:27:50;;;;;;;6.63;3.60;;;0.20;99.90;;;;;;5057275;28;20986;-63
2022/03/05 04:30:18;;;;;;;6.10;3.27;;;0.20;99.90;;;;;;5071100;28;20464;-63
2022/03/05 04:32:47;;;;;;;5.27;3.20;;;0.10;99.90;;;;;;5070873;28;20465;-64
2022/03/05 04:35:16;;;;;;;8.23;3.53;;;0.20;99.90;;;;;;5062654;28;20481;-63
2022/03/05 04:37:46;;;;;;;5.70;3.40;;;0.20;99.90;;;;;;5069222;28;20548;-63
2022/03/05 04:40:15;;;;;;;6.13;3.23;;;0.10;99.90;;;;;;5058962;28;20469;-63
2022/03/05 04:42:44;;;;;;;5.10;3.30;;;0.10;99.90;;;;;;5060173;28;20453;-63
2022/03/05 04:45:14;;;;;;;4.87;3.40;;;0.00;99.90;;;;;;5062388;28;20860;-63
2022/03/05 04:47:42;;;;;;;5.70;3.70;;;0.10;99.90;;;;;;5070921;28;20462;-63
2022/03/05 04:50:11;;;;;;;4.87;3.00;;;0.10;99.90;;;;;;5070916;28;20487;-64
2022/03/05 04:52:40;;;;;;;7.20;3.27;;;0.10;99.90;;;;;;5067021;28;20999;-63
2022/03/05 04:55:09;;;;;;;5.93;3.17;;;0.10;99.90;;;;;;5063824;28;20921;-62
2022/03/05 04:57:37;;;;;;;5.73;3.30;;;0.20;99.90;;;;;;5058723;28;20977;-62
2022/03/05 05:00:09;;;;;;;4.90;3.03;;;0.20;99.90;;;;;;5053853;28;20559;-62
2022/03/05 05:02:38;;;;;;;7.20;3.37;;;0.20;99.90;;;;;;5057468;28;20830;-63
2022/03/05 05:05:07;;;;;;;4.93;2.90;;;0.10;99.90;;;;;;5054602;28;20482;-60
2022/03/05 05:07:37;;;;;;;7.93;3.93;;;0.10;99.90;;;;;;5055805;28;20546;-63
2022/03/05 05:10:06;;;;;;;3.80;3.00;;;0.20;99.90;;;;;;5057281;28;21037;-62
2022/03/05 05:12:34;;;;;;;7.20;3.80;;;0.10;99.90;;;;;;5052629;28;20474;-62
2022/03/05 05:15:03;;;;;;;6.13;3.70;;;0.00;99.90;;;;;;5056330;28;20477;-62
2022/03/05 05:17:35;;;;;;;5.10;3.23;;;0.10;99.90;;;;;;5052775;28;20481;-63
2022/03/05 05:20:05;;;;;;;5.90;3.40;;;0.00;99.90;;;;;;5063308;28;20560;-63
2022/03/05 05:22:34;;;;;;;6.50;3.50;;;0.00;99.90;;;;;;5056264;28;20482;-63
2022/03/05 05:25:05;;;;;;;4.60;3.00;;;0.00;99.90;;;;;;5058204;28;20479;-63
2022/03/05 05:27:36;;;;;;;7.50;3.70;;;0.00;99.90;;;;;;5061229;28;20477;-63
2022/03/05 05:30:05;;;;;;;5.43;3.10;;;0.00;99.90;;;;;;5056743;28;21055;-64
2022/03/05 05:32:34;;;;;;;8.50;3.53;;;-0.10;99.90;;;;;;5056381;28;20481;-62
2022/03/05 05:35:03;;;;;;;5.07;3.37;;;0.00;99.90;;;;;;5058651;28;20561;-63
2022/03/05 05:37:31;;;;;;;6.03;2.80;;;0.00;99.90;;;;;;5056549;28;20823;-64
2022/03/05 05:39:59;;;;;;;7.60;3.17;;;-0.10;99.90;;;;;;5057938;28;20873;-63
2022/03/05 05:42:29;;;;;;;5.67;3.47;;;-0.10;99.90;;;;;;5056049;28;20480;-62
2022/03/05 05:44:57;;;;;;;5.53;3.07;;;-0.10;99.90;;;;;;5060177;28;21081;-63
2022/03/05 05:47:25;;;;;;;4.93;3.40;;;-0.10;99.90;;;;;;5056043;28;20883;-60
2022/03/05 05:49:53;;;;;;;6.50;3.27;;;-0.10;99.90;;;;;;5061894;28;20478;-63
2022/03/05 05:52:21;;;;;;;6.17;3.00;;;-0.10;99.90;;;;;;5060882;28;20472;-62
2022/03/05 05:54:50;;;;;;;5.27;3.57;;;-0.10;99.90;;;;;;5058196;28;20497;-63
2022/03/05 05:57:18;;;;;;;3.80;2.93;;;-0.20;99.90;;;;;;5059332;28;21029;-63
2022/03/05 05:59:47;;;;;;;4.43;3.00;;;-0.20;99.90;;;;;;5058828;28;20506;-62
2022/03/05 06:02:16;;;;;;;7.37;3.20;;;-0.20;99.90;;;;;;5055493;28;20470;-63
2022/03/05 06:04:45;;;;;;;6.27;3.20;;;-0.20;99.90;;;;;;5059704;28;20502;-61
2022/03/05 06:07:13;;;;;;;5.13;3.50;;;-0.20;99.90;;;;;;5055502;28;20465;-60
2022/03/05 06:09:41;;;;;;;4.87;3.37;;;-0.20;99.90;;;;;;5056264;28;20458;-63
2022/03/05 06:12:14;;;;;;;5.33;3.23;;;-0.20;99.90;;;;;;5062543;28;20835;-62
2022/03/05 06:14:42;;;;;;;5.23;3.30;;;-0.10;99.90;;;;;;5059102;28;20486;-63
2022/03/05 06:17:12;;;;;;;6.13;3.80;;;-0.20;99.90;;;;;;5059882;28;21012;-61
2022/03/05 06:19:42;;;;;;;4.53;3.07;;;-0.20;99.90;;;;;;5057791;28;20460;-62
2022/03/05 06:22:11;;;;;;;7.10;3.80;;;-0.20;99.90;;;;;;5060002;28;20468;-63
2022/03/05 06:24:39;;;;;;;5.83;3.53;;;-0.10;99.90;;;;;;5059387;28;20492;-63
2022/03/05 06:27:08;;;;;;;7.10;3.57;;;-0.10;99.90;;;;;;5059254;28;20616;-60
2022/03/05 06:29:36;;;;;;;7.07;3.73;;;-0.10;99.90;;;;;;5056189;28;20572;-63
2022/03/05 06:32:05;;;;;;;6.47;3.27;;;-0.20;99.90;;;;;;5065076;28;20492;-63
2022/03/05 06:34:34;;;;;;;8.50;3.47;;;-0.20;99.90;;;;;;5067870;28;20924;-63
2022/03/05 06:37:03;;;;;;;6.67;3.00;;;-0.20;99.90;;;;;;5072810;28;21074;-63
2022/03/05 06:39:31;;;;;;;5.00;2.93;;;-0.10;99.90;;;;;;5072252;28;20480;-64
2022/03/05 06:41:59;;;;;;;4.80;3.10;;;0.00;99.90;;;;;;5067944;28;20492;-63
2022/03/05 06:44:35;;;;;;;7.20;3.50;;;0.10;99.90;;;;;;5061432;28;20837;-63
2022/03/05 06:47:04;;;;;;;11.63;4.13;;;0.20;99.90;;;;;;5068002;28;20512;-63
2022/03/05 06:49:34;;;;;;;7.37;3.50;;;0.30;99.90;;;;;;5065908;28;20843;-63
2022/03/05 06:52:04;;;;;;;6.43;3.27;;;0.60;99.90;;;;;;5068275;28;20477;-63
2022/03/05 06:54:32;;;;;;;5.10;3.60;;;0.50;99.90;;;;;;5061597;28;20473;-63
2022/03/05 06:57:00;;;;;;;6.67;3.40;;;0.60;99.90;;;;;;5055974;28;21013;-63
2022/03/05 06:59:28;;;;;;;5.67;3.63;;;0.70;99.90;;;;;;5064810;28;20461;-63
2022/03/05 07:01:56;;;;;;;9.33;3.70;;;0.80;99.90;;;;;;5064538;28;21047;-63
2022/03/05 07:04:25;;;;;;;7.37;3.90;;;1.00;99.90;;;;;;5064157;28;20481;-65
2022/03/05 07:06:54;;;;;;;11.03;4.67;;;1.20;99.90;;;;;;5072326;28;20828;-65
2022/03/05 07:09:22;;;;;;;6.60;4.00;;;1.30;99.90;;;;;;5063979;28;20458;-65
2022/03/05 07:11:50;;;;;;;4.80;3.27;;;1.30;99.90;;;;;;5072751;28;20877;-65
2022/03/05 07:14:18;;;;;;;6.60;3.50;;;1.30;99.90;;;;;;5064359;28;20458;-66
2022/03/05 07:16:47;;;;;;;5.10;3.30;;;1.30;99.90;;;;;;5060579;28;20952;-66
2022/03/05 07:19:15;;;;;;;6.03;3.70;;;1.40;99.90;;;;;;5051526;28;20455;-65
2022/03/05 07:21:43;;;;;;;4.50;2.90;;;1.50;99.90;;;;;;5070184;28;21039;-66
2022/03/05 07:24:13;;;;;;;5.87;3.10;;;1.60;99.90;;;;;;5055682;28;20879;-65
2022/03/05 07:26:41;;;;;;;4.10;3.00;;;1.80;99.90;;;;;;5052963;28;20489;-65
2022/03/05 07:29:09;;;;;;;5.50;3.30;;;2.00;99.90;;;;;;5071756;28;20497;-65
2022/03/05 07:31:38;;;;;;;5.63;3.17;;;2.10;99.90;;;;;;5071411;28;20497;-65
2022/03/05 07:34:06;;;;;;;6.30;3.43;;;2.30;99.90;;;;;;5056754;28;20976;-66
2022/03/05 07:36:34;;;;;;;4.03;2.80;;;2.40;99.90;;;;;;5070928;28;20555;-66
2022/03/05 07:39:04;;;;;;;4.97;3.23;;;2.60;99.90;;;;;;5066926;28;20481;-65
2022/03/05 07:41:33;;;;;;;4.50;2.80;;;2.80;99.90;;;;;;5070639;28;20587;-65
2022/03/05 07:44:01;;;;;;;5.30;2.80;;;2.90;99.90;;;;;;5070902;28;20484;-65
2022/03/05 07:46:29;;;;;;;5.90;3.40;;;2.80;99.90;;;;;;5067702;28;20479;-65
2022/03/05 07:48:58;;;;;;;6.27;3.23;;;3.10;99.90;;;;;;5070955;28;20466;-66
2022/03/05 07:51:26;;;;;;;6.77;2.77;;;3.20;99.90;;;;;;5070947;28;20544;-65
2022/03/05 07:53:54;;;;;;;6.23;3.60;;;3.40;99.90;;;;;;5071064;28;20506;-65
2022/03/05 07:56:23;;;;;;;5.57;2.60;;;3.60;99.90;;;;;;5071140;28;20469;-65
2022/03/05 07:58:53;;;;;;;4.67;2.87;;;3.80;99.90;;;;;;5059876;28;20910;-64
2022/03/05 08:01:21;;;;;;;6.33;2.73;;;3.80;99.90;;;;;;5060820;28;20508;-64
2022/03/05 08:03:50;;;;;;;9.67;5.30;;;4.10;99.90;;;;;;5063303;28;20460;-65
2022/03/05 08:06:18;;;;;;;6.77;3.90;;;4.10;99.90;;;;;;5054169;28;20494;-65
2022/03/05 08:08:46;;;;;;;4.97;3.50;;;4.30;99.90;;;;;;5069179;28;20474;-65
2022/03/05 08:11:14;;;;;;;7.77;3.87;;;4.30;99.90;;;;;;5071331;28;20558;-66
2022/03/05 08:13:42;;;;;;;6.10;3.90;;;4.40;99.90;;;;;;5065960;28;20449;-66
2022/03/05 08:16:11;;;;;;;6.50;3.60;;;4.60;99.90;;;;;;5062953;28;20480;-66
2022/03/05 08:18:40;;;;;;;6.93;3.37;;;4.60;99.90;;;;;;5058372;28;20997;-65
2022/03/05 08:21:08;;;;;;;4.97;3.10;;;4.70;99.90;;;;;;5067015;28;21035;-63
2022/03/05 08:23:36;;;;;;;3.90;3.10;;;4.80;99.90;;;;;;5067541;28;20468;-65
2022/03/05 08:26:05;;;;;;;6.80;3.30;;;4.90;99.90;;;;;;5071090;28;20464;-65
2022/03/05 08:28:34;;;;;;;4.80;3.17;;;5.10;99.90;;;;;;5062417;28;20473;-65
2022/03/05 08:31:02;;;;;;;4.50;3.33;;;5.30;99.90;;;;;;5056528;28;20462;-65
2022/03/05 08:33:32;;;;;;;5.20;3.40;;;5.30;99.90;;;;;;5068441;28;20856;-65
2022/03/05 08:36:00;;;;;;;5.73;3.50;;;5.30;99.90;;;;;;5065558;28;20519;-65
2022/03/05 08:38:31;;;;;;;7.50;3.80;;;5.40;99.90;;;;;;5067943;28;20543;-65
2022/03/05 08:40:59;;;;;;;6.33;3.73;;;5.60;99.90;;;;;;5070389;28;20454;-65
2022/03/05 08:43:27;;;;;;;5.73;3.20;;;5.80;99.90;;;;;;5070032;28;20464;-65
2022/03/05 08:45:56;;;;;;;5.77;3.50;;;5.70;99.90;;;;;;5069263;28;20533;-64
2022/03/05 08:48:24;;;;;;;5.83;3.70;;;5.90;99.90;;;;;;5068662;28;20247;-65
2022/03/05 08:50:53;;;;;;;5.13;3.57;;;6.00;99.90;;;;;;5064410;28;20312;-65
2022/03/05 08:53:21;;;;;;;7.90;3.80;;;6.10;99.90;;;;;;5068890;28;20618;-65
2022/03/05 08:55:50;;;;;;;5.40;3.53;;;6.20;99.90;;;;;;5071067;28;20250;-65
2022/03/05 08:58:18;;;;;;;7.77;4.10;;;6.40;99.90;;;;;;5056807;28;20262;-65
2022/03/05 09:00:46;;;;;;;6.03;3.70;;;6.50;99.90;;;;;;5051039;28;20239;-65
2022/03/05 09:03:15;;;;;;;7.50;3.63;;;6.50;99.90;;;;;;5063820;28;20231;-65
2022/03/05 09:05:44;;;;;;;7.33;4.10;;;6.70;99.90;;;;;;5063330;28;20784;-66
2022/03/05 09:08:13;;;;;;;5.33;3.77;;;7.00;99.90;;;;;;5070582;28;20234;-65
2022/03/05 09:10:41;;;;;;;6.43;3.73;;;7.20;99.90;;;;;;5062840;28;20243;-65
2022/03/05 09:13:09;;;;;;;5.33;4.50;;;7.40;99.90;;;;;;5070361;28;20268;-64
2022/03/05 09:15:38;;;;;;;6.03;4.30;;;7.40;99.90;;;;;;5066930;28;20228;-65
2022/03/05 09:18:06;;;;;;;4.60;3.77;;;7.50;99.90;;;;;;5058293;28;20679;-65
2022/03/05 09:20:34;;;;;;;6.23;4.47;;;7.60;99.90;;;;;;5050770;28;20281;-65
2022/03/05 09:23:03;;;;;;;6.80;4.17;;;7.50;99.90;;;;;;5066356;28;20758;-65
2022/03/05 09:25:32;;;;;;;5.00;4.43;;;7.60;99.90;;;;;;5061989;28;20242;-65
2022/03/05 09:28:00;;;;;;;6.83;5.00;;;7.90;99.90;;;;;;5070209;28;20332;-65
2022/03/05 09:30:28;;;;;;;5.87;4.13;;;7.90;99.90;;;;;;5070397;28;20231;-65
2022/03/05 09:32:56;;;;;;;5.57;4.37;;;8.00;99.90;;;;;;5070485;28;20711;-65
2022/03/05 09:35:24;;;;;;;6.63;4.37;;;8.00;99.90;;;;;;5062041;28;20255;-65
2022/03/05 09:37:52;;;;;;;7.90;4.83;;;7.70;99.90;;;;;;5059847;28;20239;-64
2022/03/05 09:40:21;;;;;;;5.77;4.33;;;7.80;99.90;;;;;;5050875;28;20256;-65
2022/03/05 09:42:50;;;;;;;6.90;4.77;;;8.10;99.90;;;;;;5060214;28;20235;-65
2022/03/05 09:45:19;;;;;;;6.80;5.20;;;8.20;99.90;;;;;;5069465;28;20235;-65
2022/03/05 09:47:47;;;;;;;6.10;5.23;;;8.10;99.90;;;;;;5070239;28;20699;-64
2022/03/05 09:50:16;;;;;;;8.73;5.00;;;8.50;99.90;;;;;;5062037;28;20288;-65
2022/03/05 09:52:44;;;;;;;6.20;4.83;;;8.40;99.90;;;;;;5070152;28;20643;-65
2022/03/05 09:55:12;;;;;;;8.80;5.23;;;8.40;99.90;;;;;;5070191;28;20235;-65
2022/03/05 09:57:40;;;;;;;8.20;5.27;;;8.40;99.90;;;;;;5069083;28;20262;-65
2022/03/05 10:00:10;;;;;;;6.47;5.40;;;8.50;99.90;;;;;;5070132;28;20235;-65
2022/03/05 10:02:39;;;;;;;8.67;5.60;;;8.80;99.90;;;;;;5069158;28;20231;-64
2022/03/05 10:05:18;;;;;;;7.97;5.20;;;8.40;99.90;;;;;;5058123;28;20266;-65
2022/03/05 10:08:08;;;;;;;7.57;5.57;;;8.50;99.90;;;;;;5061748;28;20227;-65
2022/03/05 10:10:46;;;;;;;7.77;5.83;;;8.50;99.90;;;;;;5065074;28;20227;-65
2022/03/05 10:13:23;;;;;;;7.43;6.23;;;8.50;99.90;;;;;;5064012;28;20629;-65
2022/03/05 10:15:54;;;;;;;8.80;6.73;;;8.80;99.90;;;;;;5066815;28;20671;-63
2022/03/05 10:18:27;;;;;;;9.00;6.00;;;8.70;99.90;;;;;;5070680;28;20243;-66
2022/03/05 10:20:56;;;;;;;9.13;6.60;;;8.50;99.90;;;;;;5073457;28;20687;-66
2022/03/05 10:23:24;;;;;;;11.40;6.13;;;8.60;99.90;;;;;;5071434;28;20236;-66
2022/03/05 10:25:54;;;;;;;9.57;6.23;;;8.90;99.90;;;;;;5067071;28;20236;-65
2022/03/05 10:28:24;;;;;;;10.40;6.63;;;8.90;99.90;;;;;;5073102;28;20257;-65
2022/03/05 10:30:58;;;;;;;7.03;5.73;;;9.10;99.90;;;;;;5073267;28;20236;-65
2022/03/05 10:33:30;;;;;;;7.63;6.17;;;9.40;99.90;;;;;;5070925;28;20231;-65
2022/03/05 10:35:59;;;;;;;8.83;6.60;;;9.70;99.90;;;;;;5067776;28;20283;-66
2022/03/05 10:38:49;;;;;;;7.37;6.53;;;9.50;99.90;;;;;;5070265;28;20706;-66
2022/03/05 10:41:18;;;;;;;7.07;6.37;;;9.20;99.90;;;;;;5070440;28;20314;-66
2022/03/05 10:43:48;;;;;;;7.53;6.53;;;9.10;99.90;;;;;;5067902;28;20574;-65
2022/03/05 10:46:17;;;;;;;9.03;6.30;;;8.90;99.90;;;;;;5061692;28;20229;-66
2022/03/05 10:48:46;;;;;;;8.33;6.83;;;8.70;99.90;;;;;;5068093;28;20681;-65
2022/03/05 10:51:17;;;;;;;9.43;6.90;;;8.50;99.90;;;;;;5069637;28;20760;-66
2022/03/05 10:53:47;;;;;;;7.27;6.57;;;7.90;99.90;;;;;;5072629;28;20631;-65
2022/03/05 10:56:27;;;;;;;7.60;6.53;;;7.70;99.90;;;;;;5072936;28;20227;-66
2022/03/05 10:59:05;;;;;;;8.67;6.97;;;7.60;99.90;;;;;;5066849;28;20261;-66
2022/03/05 11:01:37;;;;;;;7.13;6.40;;;7.40;99.90;;;;;;5053487;28;20262;-66
2022/03/05 11:04:07;;;;;;;7.30;5.97;;;7.30;99.90;;;;;;5068216;28;20228;-65
2022/03/05 11:06:40;;;;;;;6.77;5.57;;;7.20;99.90;;;;;;5072523;28;20727;-66
2022/03/05 11:09:09;;;;;;;8.00;6.13;;;7.20;99.90;;;;;;5068548;28;20230;-66
2022/03/05 11:11:39;;;;;;;7.53;6.30;;;7.50;99.90;;;;;;5072431;28;20293;-66
2022/03/05 11:14:11;;;;;;;7.47;5.50;;;7.90;99.90;;;;;;5061394;28;20265;-66
2022/03/05 11:16:42;;;;;;;6.40;5.57;;;7.80;99.90;;;;;;5052526;28;20331;-65
2022/03/05 11:19:10;;;;;;;6.77;6.07;;;7.50;99.90;;;;;;5066684;28;20235;-66
2022/03/05 11:21:39;;;;;;;9.07;5.83;;;7.40;99.90;;;;;;5056373;28;20234;-66
2022/03/05 11:24:08;;;;;;;6.57;5.87;;;7.40;99.90;;;;;;5072043;28;20284;-65
2022/03/05 11:26:37;;;;;;;6.67;5.50;;;7.40;99.90;;;;;;5072100;28;20238;-66
2022/03/05 11:29:27;;;;;;;6.53;5.77;;;7.80;99.90;;;;;;5069739;28;20318;-66
2022/03/05 11:32:11;;;;;;;8.97;6.03;;;7.90;99.90;;;;;;5072081;28;20238;-66
2022/03/05 11:34:44;;;;;;;7.83;5.77;;;8.50;99.90;;;;;;5068246;28;20260;-66
2022/03/05 11:37:17;;;;;;;7.03;5.83;;;8.50;99.90;;;;;;5056834;28;20280;-66
2022/03/05 11:39:45;;;;;;;7.13;5.63;;;8.20;99.90;;;;;;5053650;28;20319;-66
2022/03/05 11:42:28;;;;;;;7.53;6.13;;;8.20;99.90;;;;;;5055206;28;20703;-66
2022/03/05 11:44:57;;;;;;;6.57;5.33;;;8.60;99.90;;;;;;5071412;28;20288;-66
2022/03/05 11:47:29;;;;;;;9.43;5.90;;;8.60;99.90;;;;;;5071597;28;20234;-66
2022/03/05 11:50:16;;;;;;;7.57;5.97;;;8.70;99.90;;;;;;5066868;28;20289;-65
2022/03/05 11:53:15;;;;;;;6.30;5.30;;;8.90;99.90;;;;;;5070500;28;20231;-66
2022/03/05 11:55:45;;;;;;;7.93;5.23;;;9.10;99.90;;;;;;5053794;28;20769;-66
2022/03/05 11:58:32;;;;;;;6.37;5.13;;;9.20;99.90;;;;;;5038125;28;20691;-65
2022/03/05 12:01:24;;;;;;;6.67;5.80;;;9.30;99.90;;;;;;5031490;28;20228;-66
2022/03/05 12:03:54;;;;;;;7.33;6.13;;;8.70;99.90;;;;;;5049034;28;20315;-65
2022/03/05 12:06:22;;;;;;;7.40;5.83;;;8.30;99.90;;;;;;5050957;28;20235;-65
2022/03/05 12:08:54;;;;;;;6.80;5.57;;;8.20;99.90;;;;;;5051193;28;20243;-65
2022/03/05 12:11:23;;;;;;;7.93;5.40;;;8.00;99.90;;;;;;5047052;28;20733;-65
2022/03/05 12:13:57;;;;;;;7.63;6.23;;;7.80;99.90;;;;;;5066099;28;20223;-66
2022/03/05 12:16:27;;;;;;;6.80;5.60;;;7.90;99.90;;;;;;5069014;28;20677;-65
2022/03/05 12:18:58;;;;;;;5.90;5.27;;;8.10;99.90;;;;;;5065858;28;20284;-66
2022/03/05 12:21:28;;;;;;;6.93;5.30;;;8.30;99.90;;;;;;5068961;28;20311;-65
2022/03/05 12:24:01;;;;;;;7.87;5.67;;;8.30;99.90;;;;;;5070479;28;20790;-66
2022/03/05 12:26:38;;;;;;;6.60;5.50;;;8.20;99.90;;;;;;5069636;28;20246;-66
2022/03/05 12:29:07;;;;;;;7.63;5.07;;;8.10;99.90;;;;;;5062375;28;20240;-66
2022/03/05 12:31:39;;;;;;;6.30;5.20;;;7.80;99.90;;;;;;5051226;28;20596;-66
2022/03/05 12:34:09;;;;;;;6.97;5.30;;;7.60;99.90;;;;;;5066847;28;20259;-66
2022/03/05 12:36:42;;;;;;;6.70;5.53;;;7.50;99.90;;;;;;5070969;28;20231;-66
2022/03/05 12:39:11;;;;;;;6.07;5.30;;;7.80;99.90;;;;;;5066873;28;20310;-66
2022/03/05 12:41:43;;;;;;;7.23;5.00;;;8.20;99.90;;;;;;5058174;28;20227;-66
2022/03/05 12:44:12;;;;;;;7.40;5.63;;;8.30;99.90;;;;;;5058994;28;20267;-66
2022/03/05 12:46:41;;;;;;;9.20;5.57;;;8.30;99.90;;;;;;5051410;28;20254;-65
2022/03/05 12:49:11;;;;;;;6.90;5.53;;;8.10;99.90;;;;;;5070682;28;20223;-66
2022/03/05 12:51:39;;;;;;;7.33;6.17;;;8.00;99.90;;;;;;5070693;28;20262;-65
2022/03/05 12:54:08;;;;;;;7.93;5.83;;;7.90;99.90;;;;;;5070437;28;20223;-66
2022/03/05 12:56:37;;;;;;;6.97;5.80;;;8.00;99.90;;;;;;5070903;28;20231;-66
2022/03/05 12:59:06;;;;;;;6.13;5.53;;;8.00;99.90;;;;;;5065584;28;20321;-65
2022/03/05 13:01:34;;;;;;;7.43;5.20;;;7.90;99.90;;;;;;5069736;28;20725;-66
2022/03/05 13:04:02;;;;;;;7.50;5.67;;;7.90;99.90;;;;;;5063285;28;20228;-66
2022/03/05 13:06:32;;;;;;;8.93;5.63;;;7.90;99.90;;;;;;5070092;28;20278;-66
2022/03/05 13:09:00;;;;;;;7.27;5.47;;;8.00;99.90;;;;;;5070121;28;20245;-65
2022/03/05 13:11:50;;;;;;;9.77;6.73;;;8.10;99.90;;;;;;5060879;28;20322;-66